createdAt,value
2019-02-20T00:00:51.874Z,19.60
2019-02-20T00:01:52.578Z,18.70
2019-02-20T00:02:51.882Z,19.20
2019-02-20T00:03:51.851Z,18.60
2019-02-20T00:04:51.836Z,19.40
2019-02-20T00:05:51.855Z,19.20
2019-02-20T00:06:51.816Z,19.30
2019-02-20T00:07:51.809Z,18.80
2019-02-20T00:08:51.822Z,18.30
2019-02-20T00:09:51.784Z,19.00
2019-02-20T00:10:51.765Z,18.90
2019-02-20T00:11:51.760Z,17.80
2019-02-20T00:12:51.758Z,19.20
2019-02-20T00:13:51.746Z,19.50
2019-02-20T00:14:51.746Z,17.60
2019-02-20T00:15:51.730Z,19.50
2019-02-20T00:16:51.727Z,19.60
2019-02-20T00:17:51.695Z,19.70
2019-02-20T00:18:51.696Z,19.30
2019-02-20T00:19:51.704Z,18.00
2019-02-20T00:20:51.699Z,18.20
2019-02-20T00:21:51.680Z,18.10
2019-02-20T00:22:51.635Z,18.70
2019-02-20T00:23:51.636Z,18.90
2019-02-20T00:24:51.622Z,18.40
2019-02-20T00:25:51.633Z,18.90
2019-02-20T00:26:51.612Z,17.80
2019-02-20T00:27:51.585Z,18.00
2019-02-20T00:28:51.581Z,18.20
2019-02-20T00:29:51.566Z,18.40
2019-02-20T00:30:51.569Z,19.30
2019-02-20T00:31:51.550Z,18.50
2019-02-20T00:32:51.553Z,18.70
2019-02-20T00:33:51.527Z,19.00
2019-02-20T00:34:51.512Z,18.20
2019-02-20T00:35:51.611Z,18.90
2019-02-20T00:36:51.495Z,18.80
2019-02-20T00:37:51.488Z,19.50
2019-02-20T00:38:51.466Z,19.30
2019-02-20T00:39:51.462Z,19.80
2019-02-20T00:40:51.503Z,19.00
2019-02-20T00:41:51.454Z,19.30
2019-02-20T00:42:51.433Z,18.20
2019-02-20T00:43:51.424Z,19.10
2019-02-20T00:44:51.408Z,18.90
2019-02-20T00:45:51.395Z,19.00
2019-02-20T00:46:51.423Z,19.80
2019-02-20T00:47:51.442Z,18.30
2019-02-20T00:48:51.359Z,18.20
2019-02-20T00:49:51.370Z,18.20
2019-02-20T00:50:51.336Z,19.00
2019-02-20T00:51:51.338Z,18.80
2019-02-20T00:52:51.345Z,17.80
2019-02-20T00:53:51.313Z,18.70
2019-02-20T00:54:51.312Z,18.90
2019-02-20T00:55:51.301Z,17.70
2019-02-20T00:56:51.282Z,17.40
2019-02-20T00:57:51.318Z,18.00
2019-02-20T00:58:51.281Z,18.80
2019-02-20T00:59:51.255Z,19.00
2019-02-20T01:00:51.290Z,18.80
2019-02-20T01:01:51.239Z,18.30
2019-02-20T01:02:51.221Z,19.20
2019-02-20T01:03:51.267Z,18.20
2019-02-20T01:04:51.189Z,18.80
2019-02-20T01:05:51.189Z,17.70
2019-02-20T01:06:51.178Z,18.00
2019-02-20T01:07:51.210Z,17.50
2019-02-20T01:08:51.153Z,18.00
2019-02-20T01:09:51.167Z,18.30
2019-02-20T01:10:51.132Z,17.10
2019-02-20T01:11:51.125Z,17.00
2019-02-20T01:12:51.117Z,19.00
2019-02-20T01:13:51.117Z,16.80
2019-02-20T01:14:51.109Z,17.10
2019-02-20T01:15:51.077Z,17.00
2019-02-20T01:16:51.075Z,17.80
2019-02-20T01:17:51.060Z,17.30
2019-02-20T01:18:51.054Z,16.90
2019-02-20T01:19:51.053Z,17.20
2019-02-20T01:20:51.051Z,16.60
2019-02-20T01:21:51.013Z,18.00
2019-02-20T01:22:59.609Z,17.10
2019-02-20T01:23:51.989Z,18.10
2019-02-20T01:24:50.991Z,16.20
2019-02-20T01:25:50.997Z,17.60
2019-02-20T01:26:50.971Z,16.20
2019-02-20T01:27:50.981Z,16.20
2019-02-20T01:28:50.970Z,16.30
2019-02-20T01:29:50.939Z,16.70
2019-02-20T01:30:50.928Z,15.80
2019-02-20T01:31:50.901Z,16.60
2019-02-20T01:32:50.898Z,16.00
2019-02-20T01:33:50.884Z,15.60
2019-02-20T01:34:50.902Z,15.50
2019-02-20T01:35:50.868Z,16.30
2019-02-20T01:36:50.868Z,15.10
2019-02-20T01:37:50.846Z,16.10
2019-02-20T01:38:50.835Z,15.30
2019-02-20T01:39:50.832Z,15.70
2019-02-20T01:40:50.831Z,16.10
2019-02-20T01:41:50.809Z,15.50
2019-02-20T01:42:50.801Z,14.80
2019-02-20T01:43:50.781Z,14.40
2019-02-20T01:44:50.763Z,14.30
2019-02-20T01:45:50.773Z,15.00
2019-02-20T01:46:50.780Z,15.00
2019-02-20T01:47:50.737Z,15.40
2019-02-20T01:48:50.729Z,15.60
2019-02-20T01:49:50.721Z,15.50
2019-02-20T01:50:50.698Z,14.80
2019-02-20T01:51:50.703Z,15.40
2019-02-20T01:52:50.716Z,14.50
2019-02-20T01:53:50.670Z,15.10
2019-02-20T01:54:50.666Z,14.70
2019-02-20T01:55:50.647Z,14.30
2019-02-20T01:56:50.640Z,14.70
2019-02-20T01:57:50.680Z,14.60
2019-02-20T01:58:50.624Z,14.90
2019-02-20T01:59:50.626Z,14.10
2019-02-20T02:00:50.601Z,13.50
2019-02-20T02:01:50.589Z,14.70
2019-02-20T02:02:50.586Z,13.80
2019-02-20T02:03:50.600Z,13.10
2019-02-20T02:04:50.557Z,12.90
2019-02-20T02:05:50.560Z,14.50
2019-02-20T02:06:50.528Z,13.80
2019-02-20T02:07:50.534Z,13.60
2019-02-20T02:08:50.512Z,14.30
2019-02-20T02:09:50.554Z,14.20
2019-02-20T02:10:50.497Z,14.70
2019-02-20T02:11:50.500Z,14.20
2019-02-20T02:12:50.473Z,14.20
2019-02-20T02:13:50.459Z,13.40
2019-02-20T02:14:50.482Z,14.10
2019-02-20T02:15:50.437Z,14.20
2019-02-20T02:16:50.441Z,14.50
2019-02-20T02:17:50.445Z,14.10
2019-02-20T02:18:50.423Z,15.20
2019-02-20T02:19:50.396Z,15.20
2019-02-20T02:20:50.415Z,15.50
2019-02-20T02:21:50.373Z,15.00
2019-02-20T02:22:50.378Z,14.30
2019-02-20T02:23:50.355Z,14.90
2019-02-20T02:24:50.356Z,15.80
2019-02-20T02:25:50.334Z,15.10
2019-02-20T02:26:50.347Z,15.00
2019-02-20T02:27:50.314Z,16.10
2019-02-20T02:28:50.312Z,15.90
2019-02-20T02:29:50.284Z,15.00
2019-02-20T02:30:50.315Z,15.40
2019-02-20T02:31:50.294Z,17.30
2019-02-20T02:32:50.256Z,15.40
2019-02-20T02:33:50.259Z,15.60
2019-02-20T02:34:50.250Z,16.30
2019-02-20T02:35:50.226Z,15.60
2019-02-20T02:36:50.213Z,15.00
2019-02-20T02:37:50.235Z,15.30
2019-02-20T02:38:50.210Z,16.10
2019-02-20T02:39:50.186Z,15.90
2019-02-20T02:40:50.214Z,15.60
2019-02-20T02:41:50.167Z,17.30
2019-02-20T02:42:50.192Z,16.20
2019-02-20T02:43:50.143Z,16.70
2019-02-20T02:44:50.162Z,16.40
2019-02-20T02:45:50.123Z,17.80
2019-02-20T02:46:50.120Z,16.20
2019-02-20T02:47:50.095Z,16.50
2019-02-20T02:48:50.111Z,16.70
2019-02-20T02:49:50.077Z,17.30
2019-02-20T02:50:50.062Z,18.40
2019-02-20T02:51:50.067Z,17.50
2019-02-20T02:52:50.078Z,17.20
2019-02-20T02:53:50.037Z,18.90
2019-02-20T02:54:50.038Z,18.70
2019-02-20T02:55:50.025Z,18.50
2019-02-20T02:56:50.001Z,18.30
2019-02-20T02:57:49.992Z,19.30
2019-02-20T02:58:49.980Z,18.20
2019-02-20T02:59:49.984Z,17.90
2019-02-20T03:00:49.957Z,18.70
2019-02-20T03:01:49.971Z,20.50
2019-02-20T03:02:49.939Z,19.00
2019-02-20T03:03:49.941Z,19.70
2019-02-20T03:04:49.934Z,20.10
2019-02-20T03:05:49.905Z,19.80
2019-02-20T03:06:49.913Z,19.90
2019-02-20T03:07:49.886Z,19.80
2019-02-20T03:08:49.939Z,20.20
2019-02-20T03:09:49.896Z,20.80
2019-02-20T03:10:49.857Z,20.50
2019-02-20T03:11:49.852Z,22.00
2019-02-20T03:12:49.835Z,21.20
2019-02-20T03:13:49.818Z,20.50
2019-02-20T03:14:49.854Z,22.50
2019-02-20T03:15:49.818Z,21.50
2019-02-20T03:16:49.793Z,22.70
2019-02-20T03:17:49.774Z,22.70
2019-02-20T03:18:50.084Z,21.40
2019-02-20T03:19:49.755Z,22.00
2019-02-20T03:20:49.757Z,22.80
2019-02-20T03:21:49.737Z,23.60
2019-02-20T03:22:49.716Z,23.00
2019-02-20T03:23:49.746Z,24.40
2019-02-20T03:24:49.722Z,24.40
2019-02-20T03:25:49.691Z,25.00
2019-02-20T03:26:49.713Z,25.80
2019-02-20T03:27:49.667Z,26.80
2019-02-20T03:28:49.709Z,26.70
2019-02-20T03:29:49.648Z,26.00
2019-02-20T03:30:49.652Z,27.20
2019-02-20T03:31:49.629Z,27.50
2019-02-20T03:32:49.630Z,27.20
2019-02-20T03:33:49.611Z,28.80
2019-02-20T03:34:49.658Z,28.50
2019-02-20T03:35:49.590Z,30.10
2019-02-20T03:36:49.591Z,29.80
2019-02-20T03:37:49.558Z,28.30
2019-02-20T03:38:49.584Z,28.60
2019-02-20T03:39:49.585Z,29.30
2019-02-20T03:40:49.523Z,28.20
2019-02-20T03:41:49.520Z,29.30
2019-02-20T03:42:49.555Z,30.40
2019-02-20T03:43:49.534Z,30.60
2019-02-20T03:44:49.506Z,29.60
2019-02-20T03:45:49.472Z,29.80
2019-02-20T03:46:49.466Z,30.50
2019-02-20T03:47:49.452Z,29.10
2019-02-20T03:48:49.504Z,32.80
2019-02-20T03:49:49.443Z,32.10
2019-02-20T03:50:49.438Z,31.50
2019-02-20T03:51:49.412Z,30.30
2019-02-20T03:52:49.396Z,31.60
2019-02-20T03:53:51.899Z,31.30
2019-02-20T03:54:49.405Z,31.60
2019-02-20T03:55:49.380Z,31.10
2019-02-20T03:56:49.399Z,31.20
2019-02-20T03:57:49.369Z,30.60
2019-02-20T03:58:49.335Z,31.90
2019-02-20T03:59:49.329Z,30.90
2019-02-20T04:00:49.348Z,31.50
2019-02-20T04:01:49.317Z,31.30
2019-02-20T04:02:49.309Z,31.30
2019-02-20T04:03:49.300Z,31.60
2019-02-20T04:04:49.273Z,31.30
2019-02-20T04:05:49.272Z,31.00
2019-02-20T04:06:49.276Z,32.80
2019-02-20T04:07:49.253Z,31.70
2019-02-20T04:08:49.231Z,29.80
2019-02-20T04:09:49.214Z,32.10
2019-02-20T04:10:49.210Z,31.90
2019-02-20T04:11:49.241Z,30.80
2019-02-20T04:12:49.221Z,31.30
2019-02-20T04:13:49.176Z,30.50
2019-02-20T04:14:49.212Z,30.70
2019-02-20T04:15:49.154Z,31.00
2019-02-20T04:16:49.150Z,30.50
2019-02-20T04:17:49.164Z,31.00
2019-02-20T04:18:49.134Z,31.40
2019-02-20T04:19:49.140Z,31.10
2019-02-20T04:20:49.111Z,31.00
2019-02-20T04:21:49.111Z,30.60
2019-02-20T04:22:49.086Z,31.00
2019-02-20T04:23:49.104Z,30.90
2019-02-20T04:24:49.074Z,30.90
2019-02-20T04:25:49.072Z,30.10
2019-02-20T04:26:49.045Z,29.80
2019-02-20T04:27:49.038Z,29.20
2019-02-20T04:28:49.022Z,29.90
2019-02-20T04:29:49.047Z,30.40
2019-02-20T04:30:49.009Z,29.90
2019-02-20T04:31:48.990Z,30.60
2019-02-20T04:32:48.989Z,29.10
2019-02-20T04:33:48.966Z,30.30
2019-02-20T04:34:48.986Z,29.50
2019-02-20T04:35:48.969Z,31.70
2019-02-20T04:36:48.942Z,29.80
2019-02-20T04:37:48.926Z,29.70
2019-02-20T04:38:48.919Z,30.00
2019-02-20T04:39:48.907Z,29.60
2019-02-20T04:40:48.905Z,30.30
2019-02-20T04:41:48.883Z,30.40
2019-02-20T04:42:48.876Z,30.10
2019-02-20T04:43:48.861Z,29.40
2019-02-20T04:44:48.858Z,29.00
2019-02-20T04:45:48.862Z,31.60
2019-02-20T04:46:48.822Z,29.80
2019-02-20T04:47:48.820Z,29.90
2019-02-20T04:48:48.820Z,27.90
2019-02-20T04:49:48.799Z,29.90
2019-02-20T04:50:48.808Z,27.90
2019-02-20T04:51:48.778Z,27.80
2019-02-20T04:52:48.793Z,28.90
2019-02-20T04:53:48.758Z,29.30
2019-02-20T04:54:48.786Z,28.70
2019-02-20T04:55:48.790Z,28.80
2019-02-20T04:56:48.738Z,29.20
2019-02-20T04:57:48.748Z,28.60
2019-02-20T04:58:48.715Z,29.40
2019-02-20T04:59:48.723Z,27.00
2019-02-20T05:00:49.124Z,27.80
2019-02-20T05:01:48.719Z,29.50
2019-02-20T05:03:10.564Z,29.20
2019-02-20T05:03:49.558Z,27.70
2019-02-20T05:04:49.563Z,28.80
2019-02-20T05:05:49.108Z,28.70
2019-02-20T05:06:48.656Z,29.30
2019-02-20T05:08:03.604Z,29.60
2019-02-20T05:08:48.605Z,29.20
2019-02-20T05:09:48.590Z,28.20
2019-02-20T05:10:48.595Z,28.20
2019-02-20T05:11:48.566Z,27.40
2019-02-20T05:12:48.571Z,27.30
2019-02-20T05:13:48.574Z,27.40
2019-02-20T05:14:48.533Z,27.60
2019-02-20T05:15:48.555Z,27.10
2019-02-20T05:16:48.511Z,27.10
2019-02-20T05:17:48.519Z,27.60
2019-02-20T05:18:48.527Z,26.80
2019-02-20T05:19:48.528Z,27.70
2019-02-20T05:20:48.548Z,27.30
2019-02-20T05:21:48.483Z,28.80
2019-02-20T05:22:48.464Z,27.80
2019-02-20T05:23:48.455Z,28.60
2019-02-20T05:24:48.462Z,27.60
2019-02-20T05:25:59.096Z,28.40
2019-02-20T05:26:48.412Z,28.60
2019-02-20T05:27:48.417Z,28.50
2019-02-20T05:29:11.101Z,30.10
2019-02-20T05:30:10.050Z,28.00
2019-02-20T05:31:58.307Z,28.70
2019-02-20T05:32:58.293Z,27.90
2019-02-20T05:35:07.879Z,27.10
2019-02-20T05:36:07.889Z,27.20
2019-02-20T05:37:07.808Z,28.20
2019-02-20T05:38:07.813Z,27.50
2019-02-20T05:39:07.799Z,29.30
2019-02-20T05:40:07.830Z,26.90
2019-02-20T05:41:07.795Z,28.80
2019-02-20T05:42:07.817Z,28.50
2019-02-20T05:43:07.767Z,28.80
2019-02-20T05:44:07.749Z,29.50
2019-02-20T05:45:07.749Z,29.10
2019-02-20T05:46:07.810Z,27.50
2019-02-20T05:47:07.733Z,29.50
2019-02-20T05:48:07.717Z,30.40
2019-02-20T05:49:07.834Z,29.20
2019-02-20T05:50:07.700Z,29.20
2019-02-20T05:51:07.694Z,29.70
2019-02-20T05:52:07.689Z,29.50
2019-02-20T05:53:07.667Z,28.90
2019-02-20T05:54:07.664Z,29.10
2019-02-20T05:55:07.631Z,28.70
2019-02-20T05:56:07.739Z,30.50
2019-02-20T05:57:08.251Z,29.80
2019-02-20T05:58:07.617Z,29.30
2019-02-20T05:59:07.589Z,28.80
2019-02-20T06:00:07.568Z,29.10
2019-02-20T06:01:07.603Z,29.80
2019-02-20T06:02:07.569Z,29.90
2019-02-20T06:03:07.568Z,29.20
2019-02-20T06:04:07.576Z,29.70
2019-02-20T06:05:07.574Z,29.60
2019-02-20T06:06:07.541Z,32.30
2019-02-20T06:07:07.517Z,30.10
2019-02-20T06:08:07.553Z,30.50
2019-02-20T06:09:07.505Z,30.20
2019-02-20T06:10:07.543Z,30.40
2019-02-20T06:11:14.495Z,31.00
2019-02-20T06:12:08.457Z,29.60
2019-02-20T06:13:07.438Z,30.60
2019-02-20T06:14:07.461Z,30.50
2019-02-20T06:15:07.432Z,30.70
2019-02-20T06:16:07.388Z,31.30
2019-02-20T06:17:07.398Z,32.30
2019-02-20T06:18:07.476Z,31.40
2019-02-20T06:19:07.359Z,31.90
2019-02-20T06:20:07.355Z,31.30
2019-02-20T06:21:07.352Z,32.10
2019-02-20T06:22:07.377Z,32.20
2019-02-20T06:23:07.372Z,33.30
2019-02-20T06:24:07.306Z,32.20
2019-02-20T06:25:07.296Z,31.50
2019-02-20T06:26:07.317Z,32.20
2019-02-20T06:27:08.043Z,34.70
2019-02-20T06:28:07.310Z,33.10
2019-02-20T06:29:07.243Z,34.20
2019-02-20T06:30:07.254Z,35.00
2019-02-20T06:31:07.247Z,34.50
2019-02-20T06:32:07.277Z,33.40
2019-02-20T06:33:07.271Z,33.70
2019-02-20T06:34:07.286Z,34.10
2019-02-20T06:35:07.180Z,35.20
2019-02-20T06:36:07.190Z,34.40
2019-02-20T06:37:07.175Z,35.10
2019-02-20T06:38:10.525Z,34.60
2019-02-20T06:39:07.170Z,33.90
2019-02-20T06:40:07.172Z,33.90
2019-02-20T06:41:07.122Z,35.10
2019-02-20T06:42:07.122Z,35.10
2019-02-20T06:43:07.129Z,35.60
2019-02-20T06:44:07.128Z,35.30
2019-02-20T06:45:07.135Z,34.80
2019-02-20T06:46:07.060Z,35.30
2019-02-20T06:47:07.063Z,34.90
2019-02-20T06:48:07.048Z,35.40
2019-02-20T06:49:07.056Z,34.40
2019-02-20T06:50:07.067Z,35.60
2019-02-20T06:51:07.127Z,35.30
2019-02-20T06:52:07.028Z,35.30
2019-02-20T06:53:06.997Z,35.50
2019-02-20T06:54:06.985Z,37.30
2019-02-20T06:55:07.009Z,35.20
2019-02-20T06:56:06.981Z,36.30
2019-02-20T06:57:06.971Z,37.50
2019-02-20T06:58:06.954Z,37.10
2019-02-20T06:59:06.936Z,36.90
2019-02-20T07:00:06.943Z,35.50
2019-02-20T07:01:06.942Z,36.80
2019-02-20T07:02:06.952Z,36.50
2019-02-20T07:03:07.042Z,37.60
2019-02-20T07:04:06.865Z,37.80
2019-02-20T07:05:06.864Z,36.20
2019-02-20T07:06:06.912Z,35.50
2019-02-20T07:07:06.901Z,38.10
2019-02-20T07:08:06.828Z,37.70
2019-02-20T07:09:06.895Z,38.00
2019-02-20T07:10:06.810Z,37.00
2019-02-20T07:11:06.817Z,36.90
2019-02-20T07:12:06.849Z,37.30
2019-02-20T07:13:06.835Z,35.60
2019-02-20T07:14:06.767Z,36.80
2019-02-20T07:15:06.762Z,36.90
2019-02-20T07:16:06.773Z,37.10
2019-02-20T07:17:06.861Z,39.00
2019-02-20T07:18:06.783Z,37.60
2019-02-20T07:19:06.726Z,38.50
2019-02-20T07:20:06.706Z,37.90
2019-02-20T07:21:06.748Z,37.70
2019-02-20T07:22:06.683Z,38.70
2019-02-20T07:23:06.685Z,38.50
2019-02-20T07:24:06.690Z,38.10
2019-02-20T07:25:06.643Z,37.20
2019-02-20T07:26:06.660Z,37.80
2019-02-20T07:27:06.706Z,38.30
2019-02-20T07:28:06.640Z,38.20
2019-02-20T07:29:06.631Z,39.00
2019-02-20T07:30:06.599Z,37.30
2019-02-20T07:31:06.583Z,39.20
2019-02-20T07:32:06.632Z,37.90
2019-02-20T07:33:06.660Z,38.20
2019-02-20T07:34:06.576Z,36.50
2019-02-20T07:35:06.591Z,37.50
2019-02-20T07:36:06.562Z,38.30
2019-02-20T07:37:06.720Z,37.80
2019-02-20T07:38:06.524Z,37.10
2019-02-20T07:39:06.514Z,39.30
2019-02-20T07:40:06.529Z,37.20
2019-02-20T07:41:06.494Z,37.90
2019-02-20T07:42:06.480Z,39.00
2019-02-20T07:43:06.480Z,39.80
2019-02-20T07:44:06.456Z,38.10
2019-02-20T07:45:06.465Z,37.80
2019-02-20T07:46:06.482Z,36.90
2019-02-20T07:47:06.433Z,37.50
2019-02-20T07:48:06.420Z,37.00
2019-02-20T07:49:06.397Z,38.30
2019-02-20T07:50:06.426Z,37.00
2019-02-20T07:51:06.779Z,38.70
2019-02-20T07:52:06.366Z,38.10
2019-02-20T07:54:15.091Z,37.90
2019-02-20T07:55:15.067Z,38.70
2019-02-20T07:56:15.082Z,38.00
2019-02-20T07:57:15.033Z,38.20
2019-02-20T07:58:15.034Z,38.40
2019-02-20T07:59:15.028Z,37.80
2019-02-20T08:00:15.021Z,37.90
2019-02-20T08:01:15.005Z,39.00
2019-02-20T08:02:15.050Z,39.60
2019-02-20T08:03:14.976Z,39.70
2019-02-20T08:04:14.969Z,39.00
2019-02-20T08:05:14.987Z,40.00
2019-02-20T08:06:14.973Z,38.80
2019-02-20T08:07:14.932Z,38.80
2019-02-20T08:08:14.978Z,39.20
2019-02-20T08:09:14.926Z,39.50
2019-02-20T08:10:14.904Z,39.80
2019-02-20T08:11:14.893Z,37.00
2019-02-20T08:12:14.878Z,38.30
2019-02-20T08:13:14.914Z,39.30
2019-02-20T08:14:14.902Z,37.60
2019-02-20T08:15:14.859Z,38.70
2019-02-20T08:16:14.840Z,38.50
2019-02-20T08:17:14.825Z,38.40
2019-02-20T08:18:14.823Z,37.00
2019-02-20T08:19:14.808Z,37.20
2019-02-20T08:20:14.839Z,37.70
2019-02-20T08:21:14.778Z,39.30
2019-02-20T08:22:14.782Z,37.90
2019-02-20T08:23:14.783Z,38.20
2019-02-20T08:24:14.749Z,36.60
2019-02-20T08:25:22.422Z,37.90
2019-02-20T08:26:15.747Z,38.60
2019-02-20T08:27:14.720Z,37.20
2019-02-20T08:28:14.717Z,38.30
2019-02-20T08:29:14.709Z,37.90
2019-02-20T08:30:14.690Z,37.10
2019-02-20T08:31:14.702Z,37.90
2019-02-20T08:32:14.674Z,38.30
2019-02-20T08:33:14.662Z,39.00
2019-02-20T08:34:14.657Z,38.00
2019-02-20T08:35:14.662Z,36.70
2019-02-20T08:36:14.630Z,37.60
2019-02-20T08:37:14.663Z,38.00
2019-02-20T08:38:14.616Z,38.30
2019-02-20T08:39:14.651Z,36.90
2019-02-20T08:40:14.641Z,37.80
2019-02-20T08:41:14.566Z,37.00
2019-02-20T08:42:14.619Z,37.60
2019-02-20T08:43:14.579Z,36.70
2019-02-20T08:44:14.576Z,36.70
2019-02-20T08:45:14.538Z,37.20
2019-02-20T08:46:14.555Z,36.70
2019-02-20T08:47:14.513Z,38.40
2019-02-20T08:48:14.741Z,36.70
2019-02-20T08:49:14.514Z,36.90
2019-02-20T08:50:14.488Z,38.20
2019-02-20T08:51:14.489Z,37.80
2019-02-20T08:52:14.480Z,36.70
2019-02-20T08:53:14.444Z,36.10
2019-02-20T08:54:14.441Z,36.70
2019-02-20T08:55:14.490Z,37.10
2019-02-20T08:56:14.434Z,36.30
2019-02-20T08:57:14.403Z,39.40
2019-02-20T08:58:14.417Z,37.90
2019-02-20T08:59:14.379Z,38.60
2019-02-20T09:00:14.375Z,37.90
2019-02-20T09:01:14.853Z,38.40
2019-02-20T09:02:14.343Z,38.60
2019-02-20T09:03:14.352Z,38.60
2019-02-20T09:04:14.333Z,39.10
2019-02-20T09:05:14.359Z,38.50
2019-02-20T09:06:14.308Z,38.20
2019-02-20T09:07:14.342Z,40.00
2019-02-20T09:08:14.286Z,39.10
2019-02-20T09:09:14.285Z,37.20
2019-02-20T09:10:14.282Z,36.80
2019-02-20T09:11:14.250Z,37.50
2019-02-20T09:12:14.249Z,37.70
2019-02-20T09:13:14.234Z,39.50
2019-02-20T09:14:14.234Z,38.20
2019-02-20T09:15:14.207Z,39.30
2019-02-20T09:16:14.206Z,39.70
2019-02-20T09:17:14.225Z,38.90
2019-02-20T09:18:14.174Z,36.40
2019-02-20T09:19:14.167Z,39.70
2019-02-20T09:20:14.169Z,39.90
2019-02-20T09:21:14.149Z,38.80
2019-02-20T09:22:14.135Z,39.00
2019-02-20T09:23:14.144Z,38.20
2019-02-20T09:24:14.105Z,37.80
2019-02-20T09:25:19.937Z,38.70
2019-02-20T09:26:15.112Z,40.40
2019-02-20T09:27:14.098Z,39.10
2019-02-20T09:28:14.069Z,40.60
2019-02-20T09:29:14.057Z,39.50
2019-02-20T09:30:14.038Z,38.40
2019-02-20T09:31:14.028Z,39.60
2019-02-20T09:32:14.052Z,39.40
2019-02-20T09:33:14.023Z,39.80
2019-02-20T09:34:14.001Z,39.30
2019-02-20T09:35:13.991Z,39.90
2019-02-20T09:36:13.994Z,39.90
2019-02-20T09:37:13.970Z,39.40
2019-02-20T09:38:13.977Z,40.80
2019-02-20T09:39:13.950Z,40.50
2019-02-20T09:40:13.941Z,41.20
2019-02-20T09:41:13.928Z,40.80
2019-02-20T09:42:13.922Z,39.90
2019-02-20T09:43:13.934Z,38.70
2019-02-20T09:44:13.912Z,39.70
2019-02-20T09:45:13.887Z,39.80
2019-02-20T09:46:13.874Z,39.60
2019-02-20T09:47:13.856Z,40.40
2019-02-20T09:48:13.882Z,41.10
2019-02-20T09:49:13.889Z,40.70
2019-02-20T09:50:13.851Z,40.80
2019-02-20T09:51:13.836Z,41.60
2019-02-20T09:52:13.810Z,40.10
2019-02-20T09:53:13.811Z,42.00
2019-02-20T09:54:13.823Z,39.80
2019-02-20T09:55:13.808Z,41.00
2019-02-20T09:56:16.109Z,42.10
2019-02-20T09:57:13.765Z,40.80
2019-02-20T09:58:13.744Z,41.40
2019-02-20T09:59:13.735Z,40.80
2019-02-20T10:00:13.734Z,39.70
2019-02-20T10:01:13.734Z,41.30
2019-02-20T10:02:13.719Z,41.30
2019-02-20T10:03:13.693Z,40.80
2019-02-20T10:04:13.673Z,42.50
2019-02-20T10:05:13.685Z,42.40
2019-02-20T10:06:13.652Z,41.60
2019-02-20T10:07:13.650Z,40.20
2019-02-20T10:08:13.664Z,40.80
2019-02-20T10:09:13.630Z,42.20
2019-02-20T10:10:13.631Z,42.30
2019-02-20T10:11:13.629Z,42.80
2019-02-20T10:12:13.589Z,43.40
2019-02-20T10:13:13.581Z,43.30
2019-02-20T10:14:13.563Z,42.10
2019-02-20T10:15:13.560Z,43.70
2019-02-20T10:16:13.584Z,41.70
2019-02-20T10:17:13.558Z,41.50
2019-02-20T10:18:13.527Z,42.20
2019-02-20T10:19:13.519Z,42.60
2019-02-20T10:20:13.512Z,41.30
2019-02-20T10:21:13.509Z,41.10
2019-02-20T10:22:13.511Z,41.00
2019-02-20T10:23:13.465Z,41.90
2019-02-20T10:24:13.462Z,41.80
2019-02-20T10:25:13.449Z,41.40
2019-02-20T10:26:13.432Z,41.10
2019-02-20T10:27:13.428Z,42.40
2019-02-20T10:28:13.427Z,42.80
2019-02-20T10:29:13.407Z,41.60
2019-02-20T10:30:13.401Z,41.50
2019-02-20T10:31:13.385Z,42.30
2019-02-20T10:32:13.377Z,41.60
2019-02-20T10:33:13.386Z,42.40
2019-02-20T10:34:13.365Z,40.50
2019-02-20T10:35:13.347Z,41.00
2019-02-20T10:36:13.338Z,40.80
2019-02-20T10:37:13.319Z,41.90
2019-02-20T10:38:13.317Z,41.30
2019-02-20T10:39:13.350Z,40.40
2019-02-20T10:40:13.293Z,40.10
2019-02-20T10:41:13.292Z,41.70
2019-02-20T10:42:13.267Z,41.00
2019-02-20T10:43:13.278Z,41.10
2019-02-20T10:44:13.239Z,40.20
2019-02-20T10:45:13.229Z,41.40
2019-02-20T10:46:13.219Z,40.10
2019-02-20T10:47:13.215Z,40.30
2019-02-20T10:48:13.221Z,40.80
2019-02-20T10:49:13.190Z,40.60
2019-02-20T10:50:13.181Z,40.90
2019-02-20T10:51:13.169Z,40.00
2019-02-20T10:52:13.169Z,39.70
2019-02-20T10:53:13.147Z,39.10
2019-02-20T10:54:13.163Z,39.40
2019-02-20T10:55:13.139Z,39.40
2019-02-20T10:56:13.118Z,39.40
2019-02-20T10:57:13.107Z,38.60
2019-02-20T10:58:13.099Z,38.50
2019-02-20T10:59:13.111Z,38.80
2019-02-20T11:00:23.184Z,38.10
2019-02-20T11:01:14.058Z,38.70
2019-02-20T11:02:13.050Z,39.50
2019-02-20T11:03:13.061Z,39.50
2019-02-20T11:04:13.049Z,39.10
2019-02-20T11:05:13.039Z,38.50
2019-02-20T11:06:13.002Z,38.60
2019-02-20T11:07:12.988Z,38.00
2019-02-20T11:08:13.094Z,38.70
2019-02-20T11:09:12.988Z,39.20
2019-02-20T11:10:12.971Z,39.20
2019-02-20T11:11:12.976Z,38.00
2019-02-20T11:12:12.967Z,39.00
2019-02-20T11:13:12.918Z,38.40
2019-02-20T11:14:12.930Z,38.50
2019-02-20T11:15:13.226Z,39.70
2019-02-20T11:16:12.956Z,39.10
2019-02-20T11:17:12.891Z,38.60
2019-02-20T11:18:12.873Z,39.10
2019-02-20T11:19:12.935Z,39.00
2019-02-20T11:20:13.777Z,39.80
2019-02-20T11:21:12.839Z,37.70
2019-02-20T11:22:12.832Z,39.30
2019-02-20T11:23:12.824Z,37.60
2019-02-20T11:24:12.819Z,39.80
2019-02-20T11:25:13.303Z,39.60
2019-02-20T11:26:18.391Z,38.40
2019-02-20T11:27:13.767Z,38.10
2019-02-20T11:28:12.772Z,39.50
2019-02-20T11:29:12.763Z,39.90
2019-02-20T11:30:12.836Z,39.50
2019-02-20T11:31:12.740Z,39.20
2019-02-20T11:32:12.715Z,39.90
2019-02-20T11:33:12.741Z,40.60
2019-02-20T11:34:12.710Z,41.10
2019-02-20T11:35:12.687Z,39.80
2019-02-20T11:36:12.710Z,41.30
2019-02-20T11:37:12.665Z,40.20
2019-02-20T11:38:14.194Z,40.10
2019-02-20T11:39:12.658Z,41.00
2019-02-20T11:40:12.629Z,39.40
2019-02-20T11:41:13.541Z,40.70
2019-02-20T11:42:12.646Z,40.10
2019-02-20T11:43:12.611Z,40.40
2019-02-20T11:44:20.660Z,39.80
2019-02-20T11:45:13.575Z,40.00
2019-02-20T11:46:12.632Z,39.90
2019-02-20T11:47:12.580Z,40.50
2019-02-20T11:48:12.540Z,40.60
2019-02-20T11:49:12.551Z,42.00
2019-02-20T11:50:12.575Z,41.00
2019-02-20T11:51:12.537Z,41.60
2019-02-20T11:52:12.501Z,41.90
2019-02-20T11:53:12.579Z,42.50
2019-02-20T11:54:12.473Z,42.50
2019-02-20T11:55:12.479Z,42.50
2019-02-20T11:56:12.468Z,45.00
2019-02-20T11:57:13.915Z,44.70
2019-02-20T11:58:12.431Z,42.60
2019-02-20T11:59:12.452Z,43.20
2019-02-20T12:00:12.425Z,43.40
2019-02-20T12:01:12.410Z,43.40
2019-02-20T12:02:12.404Z,44.90
2019-02-20T12:03:12.372Z,43.40
2019-02-20T12:04:12.378Z,44.30
2019-02-20T12:05:12.824Z,42.60
2019-02-20T12:06:12.354Z,43.00
2019-02-20T12:07:12.334Z,41.50
2019-02-20T12:08:12.336Z,41.60
2019-02-20T12:09:12.317Z,40.90
2019-02-20T12:10:12.867Z,42.40
2019-02-20T12:11:12.284Z,41.70
2019-02-20T12:12:12.273Z,42.60
2019-02-20T12:13:12.279Z,42.10
2019-02-20T12:14:12.276Z,40.80
2019-02-20T12:15:12.239Z,42.90
2019-02-20T12:16:12.299Z,41.60
2019-02-20T12:17:12.227Z,41.50
2019-02-20T12:18:17.419Z,42.90
2019-02-20T12:19:13.204Z,43.30
2019-02-20T12:20:12.196Z,43.40
2019-02-20T12:21:12.336Z,44.60
2019-02-20T12:22:12.186Z,43.80
2019-02-20T12:23:12.160Z,44.30
2019-02-20T12:24:12.154Z,44.90
2019-02-20T12:25:12.202Z,45.70
2019-02-20T12:26:12.130Z,45.50
2019-02-20T12:27:12.136Z,45.90
2019-02-20T12:28:12.106Z,46.30
2019-02-20T12:29:12.093Z,47.70
2019-02-20T12:30:12.089Z,47.00
2019-02-20T12:31:12.087Z,46.80
2019-02-20T12:32:12.060Z,47.40
2019-02-20T12:33:12.070Z,47.70
2019-02-20T12:34:12.034Z,47.50
2019-02-20T12:35:12.037Z,47.00
2019-02-20T12:36:12.024Z,47.50
2019-02-20T12:37:12.025Z,47.10
2019-02-20T12:38:12.034Z,47.90
2019-02-20T12:39:11.995Z,47.30
2019-02-20T12:40:11.989Z,48.00
2019-02-20T12:41:11.966Z,48.30
2019-02-20T12:42:13.035Z,49.30
2019-02-20T12:43:11.949Z,47.70
2019-02-20T12:44:11.985Z,48.80
2019-02-20T12:45:11.923Z,48.70
2019-02-20T12:46:11.913Z,47.50
2019-02-20T12:47:11.915Z,49.40
2019-02-20T12:48:11.901Z,49.50
2019-02-20T12:49:11.871Z,49.80
2019-02-20T12:50:11.921Z,50.70
2019-02-20T12:51:11.858Z,49.40
2019-02-20T12:52:11.840Z,50.70
2019-02-20T12:53:11.847Z,52.80
2019-02-20T12:54:11.830Z,49.30
2019-02-20T12:55:11.806Z,50.70
2019-02-20T12:56:11.835Z,50.60